sensor_id;sensor_type;location;lat;lon;timestamp;P1;durP1;ratioP1;P2;durP2;ratioP2
12429;SDS011;6279;42.192;24.326;2022-12-15T00:01:18;28.33;;;20.20;;
12429;SDS011;6279;42.192;24.326;2022-12-15T00:04:02;27.80;;;20.67;;
12429;SDS011;6279;42.192;24.326;2022-12-15T00:06:46;24.63;;;18.33;;
12429;SDS011;6279;42.192;24.326;2022-12-15T00:09:30;27.27;;;19.13;;
12429;SDS011;6279;42.192;24.326;2022-12-15T00:12:14;28.60;;;19.93;;
12429;SDS011;6279;42.192;24.326;2022-12-15T00:14:58;26.63;;;20.33;;
12429;SDS011;6279;42.192;24.326;2022-12-15T00:17:42;26.67;;;20.90;;
12429;SDS011;6279;42.192;24.326;2022-12-15T00:20:26;29.83;;;20.83;;
12429;SDS011;6279;42.192;24.326;2022-12-15T00:23:10;29.37;;;22.93;;
12429;SDS011;6279;42.192;24.326;2022-12-15T00:25:55;31.67;;;22.37;;
12429;SDS011;6279;42.192;24.326;2022-12-15T00:28:39;28.77;;;21.57;;
12429;SDS011;6279;42.192;24.326;2022-12-15T00:31:24;32.83;;;25.47;;
12429;SDS011;6279;42.192;24.326;2022-12-15T00:34:08;33.93;;;23.03;;
12429;SDS011;6279;42.192;24.326;2022-12-15T00:36:52;32.23;;;23.43;;
12429;SDS011;6279;42.192;24.326;2022-12-15T00:39:37;30.97;;;22.77;;
12429;SDS011;6279;42.192;24.326;2022-12-15T00:42:05;35.53;;;22.77;;
12429;SDS011;6279;42.192;24.326;2022-12-15T00:44:31;29.20;;;20.87;;
12429;SDS011;6279;42.192;24.326;2022-12-15T00:47:15;28.13;;;20.73;;
12429;SDS011;6279;42.192;24.326;2022-12-15T00:52:32;29.88;;;21.88;;
12429;SDS011;6279;42.192;24.326;2022-12-15T00:55:19;31.30;;;22.30;;
12429;SDS011;6279;42.192;24.326;2022-12-15T00:58:05;29.50;;;21.87;;
12429;SDS011;6279;42.192;24.326;2022-12-15T01:00:52;32.13;;;22.67;;
12429;SDS011;6279;42.192;24.326;2022-12-15T01:03:36;29.97;;;22.37;;
12429;SDS011;6279;42.192;24.326;2022-12-15T01:06:20;31.50;;;22.47;;
12429;SDS011;6279;42.192;24.326;2022-12-15T01:09:05;31.97;;;22.37;;
12429;SDS011;6279;42.192;24.326;2022-12-15T01:11:51;31.93;;;22.17;;
12429;SDS011;6279;42.192;24.326;2022-12-15T01:14:35;27.07;;;20.73;;
12429;SDS011;6279;42.192;24.326;2022-12-15T01:17:19;27.63;;;20.87;;
12429;SDS011;6279;42.192;24.326;2022-12-15T01:20:03;28.93;;;20.83;;
12429;SDS011;6279;42.192;24.326;2022-12-15T01:22:52;26.03;;;20.63;;
12429;SDS011;6279;42.192;24.326;2022-12-15T01:25:20;29.60;;;21.53;;
12429;SDS011;6279;42.192;24.326;2022-12-15T01:27:48;26.80;;;20.50;;
12429;SDS011;6279;42.192;24.326;2022-12-15T01:30:16;25.27;;;20.17;;
12429;SDS011;6279;42.192;24.326;2022-12-15T01:32:44;27.83;;;20.63;;
12429;SDS011;6279;42.192;24.326;2022-12-15T01:35:09;24.03;;;19.00;;
12429;SDS011;6279;42.192;24.326;2022-12-15T01:37:35;26.90;;;20.93;;
12429;SDS011;6279;42.192;24.326;2022-12-15T01:40:02;25.83;;;19.13;;
12429;SDS011;6279;42.192;24.326;2022-12-15T01:42:47;23.00;;;18.87;;
12429;SDS011;6279;42.192;24.326;2022-12-15T01:45:33;23.57;;;18.57;;
12429;SDS011;6279;42.192;24.326;2022-12-15T01:48:09;25.83;;;18.97;;
12429;SDS011;6279;42.192;24.326;2022-12-15T01:50:40;26.43;;;19.43;;
12429;SDS011;6279;42.192;24.326;2022-12-15T01:53:09;26.70;;;19.70;;
12429;SDS011;6279;42.192;24.326;2022-12-15T01:55:38;27.47;;;20.93;;
12429;SDS011;6279;42.192;24.326;2022-12-15T01:58:06;25.70;;;19.53;;
12429;SDS011;6279;42.192;24.326;2022-12-15T02:00:34;25.90;;;20.03;;
12429;SDS011;6279;42.192;24.326;2022-12-15T02:02:59;26.77;;;20.13;;
12429;SDS011;6279;42.192;24.326;2022-12-15T02:05:26;27.17;;;20.30;;
12429;SDS011;6279;42.192;24.326;2022-12-15T02:07:54;31.03;;;22.00;;
12429;SDS011;6279;42.192;24.326;2022-12-15T02:10:19;32.67;;;23.07;;
12429;SDS011;6279;42.192;24.326;2022-12-15T02:15:50;33.03;;;23.43;;
12429;SDS011;6279;42.192;24.326;2022-12-15T02:18:29;32.13;;;23.33;;
12429;SDS011;6279;42.192;24.326;2022-12-15T02:29:10;29.20;;;22.60;;
12429;SDS011;6279;42.192;24.326;2022-12-15T02:31:59;31.20;;;21.80;;
12429;SDS011;6279;42.192;24.326;2022-12-15T02:34:38;27.67;;;19.40;;
12429;SDS011;6279;42.192;24.326;2022-12-15T02:39:39;31.13;;;21.43;;
12429;SDS011;6279;42.192;24.326;2022-12-15T02:42:04;30.57;;;20.00;;
12429;SDS011;6279;42.192;24.326;2022-12-15T02:44:34;25.70;;;20.00;;
12429;SDS011;6279;42.192;24.326;2022-12-15T02:47:23;24.57;;;18.93;;
12429;SDS011;6279;42.192;24.326;2022-12-15T02:55:36;22.07;;;17.40;;
12429;SDS011;6279;42.192;24.326;2022-12-15T03:00:45;26.27;;;17.73;;
12429;SDS011;6279;42.192;24.326;2022-12-15T03:03:19;23.40;;;17.40;;
12429;SDS011;6279;42.192;24.326;2022-12-15T03:05:48;23.70;;;18.50;;
12429;SDS011;6279;42.192;24.326;2022-12-15T03:08:19;21.47;;;17.40;;
12429;SDS011;6279;42.192;24.326;2022-12-15T03:10:46;28.17;;;17.83;;
12429;SDS011;6279;42.192;24.326;2022-12-15T03:13:13;23.97;;;18.27;;
12429;SDS011;6279;42.192;24.326;2022-12-15T03:15:41;24.27;;;18.00;;
12429;SDS011;6279;42.192;24.326;2022-12-15T03:18:06;23.27;;;17.73;;
12429;SDS011;6279;42.192;24.326;2022-12-15T03:20:32;22.87;;;17.53;;
12429;SDS011;6279;42.192;24.326;2022-12-15T03:22:57;24.53;;;17.90;;
12429;SDS011;6279;42.192;24.326;2022-12-15T03:25:23;25.50;;;17.93;;
12429;SDS011;6279;42.192;24.326;2022-12-15T03:27:48;29.27;;;19.70;;
12429;SDS011;6279;42.192;24.326;2022-12-15T03:30:13;26.40;;;19.23;;
12429;SDS011;6279;42.192;24.326;2022-12-15T03:32:39;25.60;;;19.40;;
12429;SDS011;6279;42.192;24.326;2022-12-15T03:35:05;28.23;;;19.87;;
12429;SDS011;6279;42.192;24.326;2022-12-15T03:37:31;28.97;;;20.60;;
12429;SDS011;6279;42.192;24.326;2022-12-15T03:39:56;26.57;;;19.70;;
12429;SDS011;6279;42.192;24.326;2022-12-15T03:42:22;24.90;;;19.97;;
12429;SDS011;6279;42.192;24.326;2022-12-15T03:45:06;26.00;;;19.93;;
12429;SDS011;6279;42.192;24.326;2022-12-15T03:47:32;25.27;;;20.27;;
12429;SDS011;6279;42.192;24.326;2022-12-15T03:49:57;27.47;;;20.47;;
12429;SDS011;6279;42.192;24.326;2022-12-15T03:52:23;24.17;;;19.50;;
12429;SDS011;6279;42.192;24.326;2022-12-15T03:54:48;31.07;;;22.83;;
12429;SDS011;6279;42.192;24.326;2022-12-15T03:57:13;28.07;;;21.27;;
12429;SDS011;6279;42.192;24.326;2022-12-15T03:59:39;27.87;;;20.87;;
12429;SDS011;6279;42.192;24.326;2022-12-15T04:02:04;29.40;;;21.37;;
12429;SDS011;6279;42.192;24.326;2022-12-15T04:04:30;30.70;;;21.97;;
12429;SDS011;6279;42.192;24.326;2022-12-15T04:06:55;28.63;;;21.10;;
12429;SDS011;6279;42.192;24.326;2022-12-15T04:09:20;28.87;;;22.17;;
12429;SDS011;6279;42.192;24.326;2022-12-15T04:11:46;29.27;;;21.23;;
12429;SDS011;6279;42.192;24.326;2022-12-15T04:14:11;30.73;;;22.40;;
12429;SDS011;6279;42.192;24.326;2022-12-15T04:16:36;26.77;;;20.97;;
12429;SDS011;6279;42.192;24.326;2022-12-15T04:19:02;27.00;;;21.63;;
12429;SDS011;6279;42.192;24.326;2022-12-15T04:21:46;30.27;;;21.97;;
12429;SDS011;6279;42.192;24.326;2022-12-15T04:24:11;28.27;;;21.73;;
12429;SDS011;6279;42.192;24.326;2022-12-15T04:26:55;29.47;;;22.73;;
12429;SDS011;6279;42.192;24.326;2022-12-15T04:29:39;25.83;;;20.73;;
12429;SDS011;6279;42.192;24.326;2022-12-15T04:32:23;35.40;;;26.07;;
12429;SDS011;6279;42.192;24.326;2022-12-15T04:35:07;34.07;;;24.27;;
12429;SDS011;6279;42.192;24.326;2022-12-15T04:37:51;28.43;;;21.30;;
12429;SDS011;6279;42.192;24.326;2022-12-15T04:40:36;28.87;;;21.57;;
12429;SDS011;6279;42.192;24.326;2022-12-15T04:43:20;28.73;;;20.77;;
12429;SDS011;6279;42.192;24.326;2022-12-15T04:46:04;31.57;;;20.57;;
12429;SDS011;6279;42.192;24.326;2022-12-15T04:48:48;28.77;;;20.23;;
12429;SDS011;6279;42.192;24.326;2022-12-15T04:51:32;26.00;;;18.90;;
12429;SDS011;6279;42.192;24.326;2022-12-15T04:54:16;29.23;;;20.80;;
12429;SDS011;6279;42.192;24.326;2022-12-15T04:57:00;33.03;;;22.07;;
12429;SDS011;6279;42.192;24.326;2022-12-15T04:59:44;29.70;;;20.70;;
12429;SDS011;6279;42.192;24.326;2022-12-15T05:02:28;26.03;;;19.77;;
12429;SDS011;6279;42.192;24.326;2022-12-15T05:05:12;28.33;;;21.73;;
12429;SDS011;6279;42.192;24.326;2022-12-15T05:07:56;29.90;;;21.73;;
12429;SDS011;6279;42.192;24.326;2022-12-15T05:10:41;29.50;;;21.43;;
12429;SDS011;6279;42.192;24.326;2022-12-15T05:13:25;30.07;;;21.97;;
12429;SDS011;6279;42.192;24.326;2022-12-15T05:16:08;31.00;;;21.80;;
12429;SDS011;6279;42.192;24.326;2022-12-15T05:18:52;30.33;;;21.10;;
12429;SDS011;6279;42.192;24.326;2022-12-15T05:21:36;31.43;;;22.37;;
12429;SDS011;6279;42.192;24.326;2022-12-15T05:24:20;33.93;;;21.97;;
12429;SDS011;6279;42.192;24.326;2022-12-15T05:27:05;32.47;;;22.23;;
12429;SDS011;6279;42.192;24.326;2022-12-15T05:29:49;30.73;;;22.97;;
12429;SDS011;6279;42.192;24.326;2022-12-15T05:32:33;36.40;;;24.80;;
12429;SDS011;6279;42.192;24.326;2022-12-15T05:34:58;36.97;;;25.13;;
12429;SDS011;6279;42.192;24.326;2022-12-15T05:37:25;35.63;;;24.57;;
12429;SDS011;6279;42.192;24.326;2022-12-15T05:39:50;34.73;;;24.17;;
12429;SDS011;6279;42.192;24.326;2022-12-15T05:42:16;36.10;;;25.80;;
12429;SDS011;6279;42.192;24.326;2022-12-15T05:44:41;44.37;;;32.17;;
12429;SDS011;6279;42.192;24.326;2022-12-15T05:47:07;39.03;;;28.77;;
12429;SDS011;6279;42.192;24.326;2022-12-15T05:49:33;38.33;;;27.00;;
12429;SDS011;6279;42.192;24.326;2022-12-15T05:51:59;35.43;;;26.83;;
12429;SDS011;6279;42.192;24.326;2022-12-15T05:54:25;36.57;;;26.30;;
12429;SDS011;6279;42.192;24.326;2022-12-15T05:56:50;38.90;;;26.20;;
12429;SDS011;6279;42.192;24.326;2022-12-15T05:59:16;37.33;;;25.87;;
12429;SDS011;6279;42.192;24.326;2022-12-15T06:01:43;35.83;;;25.63;;
12429;SDS011;6279;42.192;24.326;2022-12-15T06:04:09;33.80;;;23.37;;
12429;SDS011;6279;42.192;24.326;2022-12-15T06:06:36;30.83;;;21.43;;
12429;SDS011;6279;42.192;24.326;2022-12-15T06:09:05;31.90;;;23.07;;
12429;SDS011;6279;42.192;24.326;2022-12-15T06:11:31;33.23;;;22.87;;
12429;SDS011;6279;42.192;24.326;2022-12-15T06:13:57;36.67;;;23.90;;
12429;SDS011;6279;42.192;24.326;2022-12-15T06:16:23;57.17;;;37.57;;
12429;SDS011;6279;42.192;24.326;2022-12-15T06:18:51;36.40;;;26.63;;
12429;SDS011;6279;42.192;24.326;2022-12-15T06:21:20;37.20;;;26.10;;
12429;SDS011;6279;42.192;24.326;2022-12-15T06:23:49;47.90;;;33.93;;
12429;SDS011;6279;42.192;24.326;2022-12-15T06:26:36;38.40;;;24.13;;
12429;SDS011;6279;42.192;24.326;2022-12-15T06:29:03;35.80;;;23.47;;
12429;SDS011;6279;42.192;24.326;2022-12-15T06:31:30;34.13;;;22.83;;
12429;SDS011;6279;42.192;24.326;2022-12-15T06:33:56;32.00;;;22.60;;
12429;SDS011;6279;42.192;24.326;2022-12-15T06:36:22;33.67;;;22.03;;
12429;SDS011;6279;42.192;24.326;2022-12-15T06:38:49;36.40;;;24.53;;
12429;SDS011;6279;42.192;24.326;2022-12-15T06:41:17;39.23;;;26.67;;
12429;SDS011;6279;42.192;24.326;2022-12-15T06:43:50;41.00;;;26.87;;
12429;SDS011;6279;42.192;24.326;2022-12-15T06:46:16;36.43;;;26.70;;
12429;SDS011;6279;42.192;24.326;2022-12-15T06:48:41;35.73;;;25.60;;
12429;SDS011;6279;42.192;24.326;2022-12-15T06:51:09;31.67;;;22.70;;
12429;SDS011;6279;42.192;24.326;2022-12-15T06:53:39;30.83;;;21.67;;
12429;SDS011;6279;42.192;24.326;2022-12-15T06:56:06;30.23;;;21.57;;
12429;SDS011;6279;42.192;24.326;2022-12-15T06:58:32;31.17;;;22.40;;
12429;SDS011;6279;42.192;24.326;2022-12-15T07:00:59;42.63;;;27.70;;
12429;SDS011;6279;42.192;24.326;2022-12-15T07:03:29;36.77;;;24.80;;
12429;SDS011;6279;42.192;24.326;2022-12-15T07:06:02;39.63;;;28.23;;
12429;SDS011;6279;42.192;24.326;2022-12-15T07:08:32;48.00;;;31.13;;
12429;SDS011;6279;42.192;24.326;2022-12-15T07:10:58;44.40;;;30.50;;
12429;SDS011;6279;42.192;24.326;2022-12-15T07:13:26;43.20;;;28.43;;
12429;SDS011;6279;42.192;24.326;2022-12-15T07:15:51;34.30;;;24.20;;
12429;SDS011;6279;42.192;24.326;2022-12-15T07:18:17;28.50;;;20.77;;
12429;SDS011;6279;42.192;24.326;2022-12-15T07:20:43;27.77;;;20.40;;
12429;SDS011;6279;42.192;24.326;2022-12-15T07:23:08;25.97;;;19.17;;
12429;SDS011;6279;42.192;24.326;2022-12-15T07:25:34;22.43;;;17.93;;
12429;SDS011;6279;42.192;24.326;2022-12-15T07:28:00;28.43;;;19.20;;
12429;SDS011;6279;42.192;24.326;2022-12-15T07:30:25;27.50;;;20.67;;
12429;SDS011;6279;42.192;24.326;2022-12-15T07:32:51;26.07;;;19.83;;
12429;SDS011;6279;42.192;24.326;2022-12-15T07:35:16;26.90;;;18.67;;
12429;SDS011;6279;42.192;24.326;2022-12-15T07:37:42;25.53;;;18.70;;
12429;SDS011;6279;42.192;24.326;2022-12-15T07:40:07;23.43;;;18.67;;
12429;SDS011;6279;42.192;24.326;2022-12-15T07:42:36;23.10;;;18.27;;
12429;SDS011;6279;42.192;24.326;2022-12-15T07:45:02;24.07;;;18.13;;
12429;SDS011;6279;42.192;24.326;2022-12-15T07:47:29;24.90;;;19.70;;
12429;SDS011;6279;42.192;24.326;2022-12-15T07:49:55;29.97;;;23.73;;
12429;SDS011;6279;42.192;24.326;2022-12-15T07:52:20;20.97;;;17.40;;
12429;SDS011;6279;42.192;24.326;2022-12-15T07:54:45;19.93;;;16.07;;
12429;SDS011;6279;42.192;24.326;2022-12-15T07:57:11;21.77;;;17.87;;
12429;SDS011;6279;42.192;24.326;2022-12-15T07:59:36;21.83;;;17.77;;
12429;SDS011;6279;42.192;24.326;2022-12-15T08:02:02;21.60;;;16.93;;
12429;SDS011;6279;42.192;24.326;2022-12-15T08:04:31;19.83;;;16.60;;
12429;SDS011;6279;42.192;24.326;2022-12-15T08:06:57;20.60;;;17.23;;
12429;SDS011;6279;42.192;24.326;2022-12-15T08:09:23;18.93;;;15.53;;
12429;SDS011;6279;42.192;24.326;2022-12-15T08:11:48;26.73;;;22.33;;
12429;SDS011;6279;42.192;24.326;2022-12-15T08:14:14;21.27;;;18.87;;
12429;SDS011;6279;42.192;24.326;2022-12-15T08:16:40;16.73;;;14.43;;
12429;SDS011;6279;42.192;24.326;2022-12-15T08:19:06;17.20;;;14.40;;
12429;SDS011;6279;42.192;24.326;2022-12-15T08:21:34;17.23;;;15.33;;
12429;SDS011;6279;42.192;24.326;2022-12-15T08:24:00;18.40;;;16.10;;
12429;SDS011;6279;42.192;24.326;2022-12-15T08:26:25;19.97;;;15.83;;
12429;SDS011;6279;42.192;24.326;2022-12-15T08:28:51;17.67;;;13.83;;
12429;SDS011;6279;42.192;24.326;2022-12-15T08:31:18;17.77;;;14.77;;
12429;SDS011;6279;42.192;24.326;2022-12-15T08:33:45;16.97;;;15.17;;
12429;SDS011;6279;42.192;24.326;2022-12-15T08:36:12;19.00;;;16.47;;
12429;SDS011;6279;42.192;24.326;2022-12-15T08:38:39;17.37;;;15.17;;
12429;SDS011;6279;42.192;24.326;2022-12-15T08:41:07;17.90;;;16.00;;
12429;SDS011;6279;42.192;24.326;2022-12-15T08:43:35;18.53;;;16.27;;
12429;SDS011;6279;42.192;24.326;2022-12-15T08:46:02;20.83;;;17.97;;
12429;SDS011;6279;42.192;24.326;2022-12-15T08:48:29;16.63;;;14.63;;
12429;SDS011;6279;42.192;24.326;2022-12-15T08:50:54;16.13;;;13.80;;
12429;SDS011;6279;42.192;24.326;2022-12-15T08:53:20;15.17;;;13.13;;
12429;SDS011;6279;42.192;24.326;2022-12-15T08:55:46;16.93;;;14.63;;
12429;SDS011;6279;42.192;24.326;2022-12-15T08:58:11;13.30;;;11.23;;
12429;SDS011;6279;42.192;24.326;2022-12-15T09:00:37;9.57;;;8.47;;
12429;SDS011;6279;42.192;24.326;2022-12-15T09:03:02;11.60;;;9.97;;
12429;SDS011;6279;42.192;24.326;2022-12-15T09:05:27;12.77;;;10.80;;
12429;SDS011;6279;42.192;24.326;2022-12-15T09:07:56;11.67;;;9.40;;
12429;SDS011;6279;42.192;24.326;2022-12-15T09:10:23;10.93;;;9.73;;
12429;SDS011;6279;42.192;24.326;2022-12-15T09:12:49;11.47;;;10.03;;
12429;SDS011;6279;42.192;24.326;2022-12-15T09:15:15;11.73;;;10.23;;
12429;SDS011;6279;42.192;24.326;2022-12-15T09:17:41;10.90;;;9.33;;
12429;SDS011;6279;42.192;24.326;2022-12-15T09:20:06;11.13;;;9.27;;
12429;SDS011;6279;42.192;24.326;2022-12-15T09:22:33;11.43;;;9.43;;
12429;SDS011;6279;42.192;24.326;2022-12-15T09:25:00;8.87;;;7.97;;
12429;SDS011;6279;42.192;24.326;2022-12-15T09:27:26;9.47;;;8.47;;
12429;SDS011;6279;42.192;24.326;2022-12-15T09:29:53;10.97;;;9.70;;
12429;SDS011;6279;42.192;24.326;2022-12-15T09:32:18;13.90;;;12.23;;
12429;SDS011;6279;42.192;24.326;2022-12-15T09:34:44;9.47;;;8.47;;
12429;SDS011;6279;42.192;24.326;2022-12-15T09:37:09;9.57;;;8.30;;
12429;SDS011;6279;42.192;24.326;2022-12-15T09:39:34;10.03;;;9.03;;
12429;SDS011;6279;42.192;24.326;2022-12-15T09:42:04;11.10;;;9.50;;
12429;SDS011;6279;42.192;24.326;2022-12-15T09:44:30;12.00;;;10.30;;
12429;SDS011;6279;42.192;24.326;2022-12-15T09:50:04;10.57;;;8.90;;
12429;SDS011;6279;42.192;24.326;2022-12-15T09:52:43;9.77;;;8.33;;
12429;SDS011;6279;42.192;24.326;2022-12-15T09:55:22;10.60;;;9.37;;
12429;SDS011;6279;42.192;24.326;2022-12-15T09:57:53;11.13;;;9.57;;
12429;SDS011;6279;42.192;24.326;2022-12-15T10:00:22;11.67;;;9.50;;
12429;SDS011;6279;42.192;24.326;2022-12-15T10:08:41;10.27;;;8.87;;
12429;SDS011;6279;42.192;24.326;2022-12-15T10:22:12;10.50;;;9.10;;
12429;SDS011;6279;42.192;24.326;2022-12-15T10:24:40;8.30;;;7.33;;
12429;SDS011;6279;42.192;24.326;2022-12-15T10:32:26;11.83;;;7.63;;
12429;SDS011;6279;42.192;24.326;2022-12-15T10:34:57;10.37;;;7.50;;
12429;SDS011;6279;42.192;24.326;2022-12-15T10:37:22;9.37;;;7.23;;
12429;SDS011;6279;42.192;24.326;2022-12-15T10:39:48;10.67;;;6.90;;
12429;SDS011;6279;42.192;24.326;2022-12-15T10:42:19;10.43;;;7.23;;
12429;SDS011;6279;42.192;24.326;2022-12-15T10:44:48;10.13;;;7.20;;
12429;SDS011;6279;42.192;24.326;2022-12-15T10:47:16;12.50;;;7.47;;
12429;SDS011;6279;42.192;24.326;2022-12-15T10:49:42;12.23;;;7.37;;
12429;SDS011;6279;42.192;24.326;2022-12-15T10:52:41;10.60;;;7.40;;
12429;SDS011;6279;42.192;24.326;2022-12-15T10:55:24;11.20;;;7.87;;
12429;SDS011;6279;42.192;24.326;2022-12-15T10:58:20;11.57;;;8.00;;
12429;SDS011;6279;42.192;24.326;2022-12-15T11:00:47;10.73;;;7.70;;
12429;SDS011;6279;42.192;24.326;2022-12-15T11:03:28;11.03;;;7.20;;
12429;SDS011;6279;42.192;24.326;2022-12-15T11:05:54;16.47;;;7.87;;
12429;SDS011;6279;42.192;24.326;2022-12-15T11:08:21;10.50;;;7.40;;
12429;SDS011;6279;42.192;24.326;2022-12-15T11:10:58;9.37;;;6.87;;
12429;SDS011;6279;42.192;24.326;2022-12-15T11:13:41;11.93;;;6.70;;
12429;SDS011;6279;42.192;24.326;2022-12-15T11:16:29;9.17;;;7.13;;
12429;SDS011;6279;42.192;24.326;2022-12-15T11:19:03;13.67;;;7.67;;
12429;SDS011;6279;42.192;24.326;2022-12-15T11:21:36;13.67;;;7.87;;
12429;SDS011;6279;42.192;24.326;2022-12-15T11:32:40;13.70;;;7.67;;
12429;SDS011;6279;42.192;24.326;2022-12-15T11:35:12;13.33;;;8.00;;
12429;SDS011;6279;42.192;24.326;2022-12-15T11:37:39;12.97;;;8.10;;
12429;SDS011;6279;42.192;24.326;2022-12-15T11:40:19;15.80;;;8.87;;
12429;SDS011;6279;42.192;24.326;2022-12-15T11:51:19;16.67;;;7.90;;
12429;SDS011;6279;42.192;24.326;2022-12-15T12:19:10;10.47;;;8.17;;
12429;SDS011;6279;42.192;24.326;2022-12-15T12:21:44;11.30;;;7.27;;
12429;SDS011;6279;42.192;24.326;2022-12-15T12:24:35;12.77;;;8.43;;
12429;SDS011;6279;42.192;24.326;2022-12-15T12:32:41;13.13;;;7.37;;
12429;SDS011;6279;42.192;24.326;2022-12-15T12:38:09;16.90;;;8.00;;
12429;SDS011;6279;42.192;24.326;2022-12-15T12:43:04;17.17;;;7.50;;
12429;SDS011;6279;42.192;24.326;2022-12-15T12:45:46;20.90;;;11.30;;
12429;SDS011;6279;42.192;24.326;2022-12-15T12:50:48;15.93;;;10.03;;
12429;SDS011;6279;42.192;24.326;2022-12-15T12:53:30;13.50;;;10.20;;
12429;SDS011;6279;42.192;24.326;2022-12-15T12:55:57;13.47;;;8.70;;
12429;SDS011;6279;42.192;24.326;2022-12-15T13:03:38;14.30;;;7.53;;
12429;SDS011;6279;42.192;24.326;2022-12-15T13:12:03;19.20;;;7.93;;
12429;SDS011;6279;42.192;24.326;2022-12-15T13:22:28;15.00;;;10.17;;
12429;SDS011;6279;42.192;24.326;2022-12-15T13:24:56;15.43;;;10.63;;
12429;SDS011;6279;42.192;24.326;2022-12-15T13:27:22;14.00;;;10.50;;
12429;SDS011;6279;42.192;24.326;2022-12-15T13:32:33;12.67;;;9.17;;
12429;SDS011;6279;42.192;24.326;2022-12-15T13:40:31;13.37;;;9.10;;
12429;SDS011;6279;42.192;24.326;2022-12-15T13:45:59;13.73;;;8.30;;
12429;SDS011;6279;42.192;24.326;2022-12-15T13:48:34;15.63;;;10.23;;
12429;SDS011;6279;42.192;24.326;2022-12-15T13:53:47;12.97;;;8.20;;
12429;SDS011;6279;42.192;24.326;2022-12-15T13:56:22;13.67;;;9.47;;
12429;SDS011;6279;42.192;24.326;2022-12-15T13:58:56;15.63;;;9.70;;
12429;SDS011;6279;42.192;24.326;2022-12-15T14:01:29;14.40;;;10.37;;
12429;SDS011;6279;42.192;24.326;2022-12-15T14:03:56;17.63;;;11.40;;
12429;SDS011;6279;42.192;24.326;2022-12-15T14:06:22;18.83;;;12.30;;
12429;SDS011;6279;42.192;24.326;2022-12-15T14:08:48;16.27;;;12.40;;
12429;SDS011;6279;42.192;24.326;2022-12-15T14:11:19;16.80;;;12.00;;
12429;SDS011;6279;42.192;24.326;2022-12-15T14:13:47;20.80;;;13.73;;
12429;SDS011;6279;42.192;24.326;2022-12-15T14:16:17;19.00;;;11.87;;
12429;SDS011;6279;42.192;24.326;2022-12-15T14:19:01;17.77;;;11.83;;
12429;SDS011;6279;42.192;24.326;2022-12-15T14:21:27;15.60;;;11.73;;
12429;SDS011;6279;42.192;24.326;2022-12-15T14:23:55;18.00;;;12.10;;
12429;SDS011;6279;42.192;24.326;2022-12-15T14:26:25;20.23;;;15.07;;
12429;SDS011;6279;42.192;24.326;2022-12-15T14:28:59;21.73;;;14.20;;
12429;SDS011;6279;42.192;24.326;2022-12-15T14:31:26;23.77;;;16.27;;
12429;SDS011;6279;42.192;24.326;2022-12-15T14:36:29;35.67;;;21.40;;
12429;SDS011;6279;42.192;24.326;2022-12-15T14:39:00;28.90;;;18.57;;
12429;SDS011;6279;42.192;24.326;2022-12-15T14:41:30;36.80;;;22.60;;
12429;SDS011;6279;42.192;24.326;2022-12-15T14:44:03;30.93;;;20.43;;
12429;SDS011;6279;42.192;24.326;2022-12-15T14:46:32;25.23;;;17.57;;
12429;SDS011;6279;42.192;24.326;2022-12-15T14:49:02;23.70;;;15.77;;
12429;SDS011;6279;42.192;24.326;2022-12-15T14:51:30;22.30;;;15.80;;
12429;SDS011;6279;42.192;24.326;2022-12-15T14:54:03;24.37;;;15.40;;
12429;SDS011;6279;42.192;24.326;2022-12-15T14:56:29;21.40;;;13.93;;
12429;SDS011;6279;42.192;24.326;2022-12-15T15:01:36;24.83;;;16.17;;
12429;SDS011;6279;42.192;24.326;2022-12-15T15:04:05;22.80;;;16.20;;
12429;SDS011;6279;42.192;24.326;2022-12-15T15:06:51;22.20;;;16.13;;
12429;SDS011;6279;42.192;24.326;2022-12-15T15:12:01;22.90;;;15.83;;
12429;SDS011;6279;42.192;24.326;2022-12-15T15:14:32;28.20;;;18.47;;
12429;SDS011;6279;42.192;24.326;2022-12-15T15:20:00;29.77;;;20.53;;
12429;SDS011;6279;42.192;24.326;2022-12-15T15:28:00;35.43;;;21.67;;
12429;SDS011;6279;42.192;24.326;2022-12-15T15:30:27;28.90;;;19.80;;
12429;SDS011;6279;42.192;24.326;2022-12-15T15:32:57;28.70;;;19.23;;
12429;SDS011;6279;42.192;24.326;2022-12-15T15:35:28;30.00;;;19.30;;
12429;SDS011;6279;42.192;24.326;2022-12-15T15:37:58;31.57;;;19.23;;
12429;SDS011;6279;42.192;24.326;2022-12-15T15:40:40;38.20;;;21.00;;
12429;SDS011;6279;42.192;24.326;2022-12-15T15:43:09;38.23;;;22.47;;
12429;SDS011;6279;42.192;24.326;2022-12-15T15:45:40;39.73;;;23.73;;
12429;SDS011;6279;42.192;24.326;2022-12-15T15:48:06;33.87;;;22.03;;
12429;SDS011;6279;42.192;24.326;2022-12-15T15:50:38;33.07;;;21.73;;
12429;SDS011;6279;42.192;24.326;2022-12-15T15:53:04;36.50;;;23.20;;
12429;SDS011;6279;42.192;24.326;2022-12-15T15:55:29;34.23;;;22.53;;
12429;SDS011;6279;42.192;24.326;2022-12-15T15:57:57;37.40;;;23.30;;
12429;SDS011;6279;42.192;24.326;2022-12-15T16:00:23;41.97;;;23.53;;
12429;SDS011;6279;42.192;24.326;2022-12-15T16:02:49;34.13;;;22.67;;
12429;SDS011;6279;42.192;24.326;2022-12-15T16:05:15;38.27;;;25.20;;
12429;SDS011;6279;42.192;24.326;2022-12-15T16:07:41;45.77;;;28.30;;
12429;SDS011;6279;42.192;24.326;2022-12-15T16:10:11;62.63;;;35.67;;
12429;SDS011;6279;42.192;24.326;2022-12-15T16:12:43;49.87;;;28.47;;
12429;SDS011;6279;42.192;24.326;2022-12-15T16:15:15;54.93;;;28.93;;
12429;SDS011;6279;42.192;24.326;2022-12-15T16:17:42;49.43;;;29.60;;
12429;SDS011;6279;42.192;24.326;2022-12-15T16:20:10;42.63;;;25.63;;
12429;SDS011;6279;42.192;24.326;2022-12-15T16:22:40;48.67;;;28.13;;
12429;SDS011;6279;42.192;24.326;2022-12-15T16:25:14;47.80;;;27.47;;
12429;SDS011;6279;42.192;24.326;2022-12-15T16:27:42;44.33;;;28.93;;
12429;SDS011;6279;42.192;24.326;2022-12-15T16:30:18;53.97;;;33.10;;
12429;SDS011;6279;42.192;24.326;2022-12-15T16:32:47;46.63;;;30.53;;
12429;SDS011;6279;42.192;24.326;2022-12-15T16:35:12;57.43;;;40.43;;
12429;SDS011;6279;42.192;24.326;2022-12-15T16:37:38;68.20;;;42.13;;
12429;SDS011;6279;42.192;24.326;2022-12-15T16:40:17;64.00;;;37.83;;
12429;SDS011;6279;42.192;24.326;2022-12-15T16:42:50;58.90;;;34.97;;
12429;SDS011;6279;42.192;24.326;2022-12-15T16:45:20;53.33;;;34.17;;
12429;SDS011;6279;42.192;24.326;2022-12-15T16:47:47;53.10;;;34.97;;
12429;SDS011;6279;42.192;24.326;2022-12-15T16:50:14;87.33;;;55.27;;
12429;SDS011;6279;42.192;24.326;2022-12-15T16:52:42;70.70;;;48.00;;
12429;SDS011;6279;42.192;24.326;2022-12-15T16:55:24;61.37;;;43.90;;
12429;SDS011;6279;42.192;24.326;2022-12-15T16:57:55;72.80;;;48.87;;
12429;SDS011;6279;42.192;24.326;2022-12-15T17:00:27;66.10;;;47.33;;
12429;SDS011;6279;42.192;24.326;2022-12-15T17:02:55;68.00;;;46.50;;
12429;SDS011;6279;42.192;24.326;2022-12-15T17:05:23;63.93;;;43.30;;
12429;SDS011;6279;42.192;24.326;2022-12-15T17:07:51;58.27;;;38.57;;
12429;SDS011;6279;42.192;24.326;2022-12-15T17:10:22;59.57;;;41.83;;
12429;SDS011;6279;42.192;24.326;2022-12-15T17:12:49;65.13;;;41.47;;
12429;SDS011;6279;42.192;24.326;2022-12-15T17:15:20;64.80;;;42.13;;
12429;SDS011;6279;42.192;24.326;2022-12-15T17:17:50;59.37;;;37.90;;
12429;SDS011;6279;42.192;24.326;2022-12-15T17:20:21;66.63;;;39.13;;
12429;SDS011;6279;42.192;24.326;2022-12-15T17:22:52;59.07;;;40.20;;